sensor_id;sensor_type;location;lat;lon;timestamp;pressure;altitude;pressure_sealevel;temperature;humidity
47873;BME280;73966;47.438;18.912;2023-11-19T00:01:25;100478.00;;;4.41;62.37
47873;BME280;73966;47.438;18.912;2023-11-19T00:03:56;100478.19;;;4.35;62.45
47873;BME280;73966;47.438;18.912;2023-11-19T00:06:25;100481.44;;;4.66;61.53
47873;BME280;73966;47.438;18.912;2023-11-19T00:08:55;100473.47;;;4.69;61.37
47873;BME280;73966;47.438;18.912;2023-11-19T00:11:24;100472.56;;;4.71;61.26
47873;BME280;73966;47.438;18.912;2023-11-19T00:13:53;100474.75;;;4.83;60.82
47873;BME280;73966;47.438;18.912;2023-11-19T00:16:22;100479.78;;;4.89;60.81
47873;BME280;73966;47.438;18.912;2023-11-19T00:18:51;100466.75;;;4.86;60.70
47873;BME280;73966;47.438;18.912;2023-11-19T00:21:22;100473.78;;;4.85;60.77
47873;BME280;73966;47.438;18.912;2023-11-19T00:23:52;100475.97;;;4.49;61.57
47873;BME280;73966;47.438;18.912;2023-11-19T00:26:21;100476.56;;;4.81;60.79
47873;BME280;73966;47.438;18.912;2023-11-19T00:28:52;100481.75;;;5.07;59.95
47873;BME280;73966;47.438;18.912;2023-11-19T00:31:24;100497.34;;;4.87;60.52
47873;BME280;73966;47.438;18.912;2023-11-19T00:33:56;100500.81;;;4.64;61.12
47873;BME280;73966;47.438;18.912;2023-11-19T00:36:27;100507.13;;;4.58;61.51
47873;BME280;73966;47.438;18.912;2023-11-19T00:38:56;100490.50;;;4.83;60.80
47873;BME280;73966;47.438;18.912;2023-11-19T00:41:26;100488.78;;;4.82;60.72
47873;BME280;73966;47.438;18.912;2023-11-19T00:43:55;100482.09;;;4.73;61.06
47873;BME280;73966;47.438;18.912;2023-11-19T00:46:24;100482.19;;;4.95;60.57
47873;BME280;73966;47.438;18.912;2023-11-19T00:48:53;100483.22;;;4.91;60.55
47873;BME280;73966;47.438;18.912;2023-11-19T00:51:22;100482.75;;;5.03;60.00
47873;BME280;73966;47.438;18.912;2023-11-19T00:53:53;100471.09;;;4.87;60.58
47873;BME280;73966;47.438;18.912;2023-11-19T00:56:24;100467.47;;;4.91;60.49
47873;BME280;73966;47.438;18.912;2023-11-19T00:58:53;100469.50;;;5.06;59.82
47873;BME280;73966;47.438;18.912;2023-11-19T01:01:22;100471.56;;;4.98;60.05
47873;BME280;73966;47.438;18.912;2023-11-19T01:03:52;100470.31;;;4.85;60.66
47873;BME280;73966;47.438;18.912;2023-11-19T01:06:28;100463.53;;;4.79;60.95
47873;BME280;73966;47.438;18.912;2023-11-19T01:08:59;100465.22;;;4.80;61.04
47873;BME280;73966;47.438;18.912;2023-11-19T01:11:28;100471.09;;;4.87;60.72
47873;BME280;73966;47.438;18.912;2023-11-19T01:13:57;100473.69;;;4.88;60.68
47873;BME280;73966;47.438;18.912;2023-11-19T01:16:26;100478.75;;;4.93;60.54
47873;BME280;73966;47.438;18.912;2023-11-19T01:18:56;100469.28;;;4.89;60.58
47873;BME280;73966;47.438;18.912;2023-11-19T01:21:43;100468.81;;;5.01;60.27
47873;BME280;73966;47.438;18.912;2023-11-19T01:24:14;100460.72;;;4.84;60.59
47873;BME280;73966;47.438;18.912;2023-11-19T01:26:44;100451.34;;;4.77;60.70
47873;BME280;73966;47.438;18.912;2023-11-19T01:29:13;100461.81;;;4.53;61.32
47873;BME280;73966;47.438;18.912;2023-11-19T01:31:43;100458.50;;;4.97;60.19
47873;BME280;73966;47.438;18.912;2023-11-19T01:34:13;100454.37;;;5.13;59.77
47873;BME280;73966;47.438;18.912;2023-11-19T01:36:42;100460.66;;;4.85;60.55
47873;BME280;73966;47.438;18.912;2023-11-19T01:39:11;100463.75;;;4.48;61.72
47873;BME280;73966;47.438;18.912;2023-11-19T01:41:42;100462.78;;;4.51;61.95
47873;BME280;73966;47.438;18.912;2023-11-19T01:44:11;100463.22;;;4.63;61.72
47873;BME280;73966;47.438;18.912;2023-11-19T01:46:42;100464.09;;;4.62;61.62
47873;BME280;73966;47.438;18.912;2023-11-19T01:49:14;100457.94;;;4.38;62.12
47873;BME280;73966;47.438;18.912;2023-11-19T01:51:45;100447.56;;;4.60;61.66
47873;BME280;73966;47.438;18.912;2023-11-19T01:54:15;100441.88;;;4.73;61.21
47873;BME280;73966;47.438;18.912;2023-11-19T01:56:46;100431.53;;;4.68;61.29
47873;BME280;73966;47.438;18.912;2023-11-19T01:59:16;100429.94;;;4.64;61.36
47873;BME280;73966;47.438;18.912;2023-11-19T02:01:46;100424.72;;;4.62;61.11
47873;BME280;73966;47.438;18.912;2023-11-19T02:04:27;100426.16;;;4.48;61.56
47873;BME280;73966;47.438;18.912;2023-11-19T02:06:58;100413.94;;;4.22;62.28
47873;BME280;73966;47.438;18.912;2023-11-19T02:09:32;100418.31;;;4.46;61.51
47873;BME280;73966;47.438;18.912;2023-11-19T02:12:02;100412.88;;;4.52;61.17
47873;BME280;73966;47.438;18.912;2023-11-19T02:14:32;100410.69;;;4.40;61.48
47873;BME280;73966;47.438;18.912;2023-11-19T02:17:01;100416.81;;;4.39;61.43
47873;BME280;73966;47.438;18.912;2023-11-19T02:19:30;100416.84;;;4.62;60.74
47873;BME280;73966;47.438;18.912;2023-11-19T02:21:59;100420.59;;;4.55;60.76
47873;BME280;73966;47.438;18.912;2023-11-19T02:24:31;100415.47;;;4.29;61.67
47873;BME280;73966;47.438;18.912;2023-11-19T02:27:10;100400.72;;;4.50;61.11
47873;BME280;73966;47.438;18.912;2023-11-19T02:29:44;100395.00;;;4.62;60.64
47873;BME280;73966;47.438;18.912;2023-11-19T02:32:13;100407.72;;;4.49;60.77
47873;BME280;73966;47.438;18.912;2023-11-19T02:34:43;100409.87;;;4.38;61.13
47873;BME280;73966;47.438;18.912;2023-11-19T02:37:12;100416.97;;;4.36;61.19
47873;BME280;73966;47.438;18.912;2023-11-19T02:39:42;100413.56;;;4.57;60.28
47873;BME280;73966;47.438;18.912;2023-11-19T02:42:11;100405.47;;;4.38;60.85
47873;BME280;73966;47.438;18.912;2023-11-19T02:44:44;100401.59;;;4.25;61.23
47873;BME280;73966;47.438;18.912;2023-11-19T02:47:13;100399.63;;;4.32;61.11
47873;BME280;73966;47.438;18.912;2023-11-19T02:49:43;100392.56;;;4.09;61.71
47873;BME280;73966;47.438;18.912;2023-11-19T02:52:12;100389.41;;;4.24;61.28
47873;BME280;73966;47.438;18.912;2023-11-19T02:54:43;100383.41;;;4.21;61.31
47873;BME280;73966;47.438;18.912;2023-11-19T02:57:12;100386.91;;;4.19;61.36
47873;BME280;73966;47.438;18.912;2023-11-19T02:59:46;100386.78;;;4.24;61.15
47873;BME280;73966;47.438;18.912;2023-11-19T03:02:15;100380.53;;;4.27;61.17
47873;BME280;73966;47.438;18.912;2023-11-19T03:04:46;100378.25;;;4.17;61.37
47873;BME280;73966;47.438;18.912;2023-11-19T03:07:15;100368.12;;;4.32;60.97
47873;BME280;73966;47.438;18.912;2023-11-19T03:09:45;100372.09;;;4.18;61.45
47873;BME280;73966;47.438;18.912;2023-11-19T03:12:14;100362.28;;;4.24;61.02
47873;BME280;73966;47.438;18.912;2023-11-19T03:14:43;100364.97;;;4.22;60.75
47873;BME280;73966;47.438;18.912;2023-11-19T03:17:17;100367.06;;;4.12;61.14
47873;BME280;73966;47.438;18.912;2023-11-19T03:19:46;100354.00;;;3.86;62.01
47873;BME280;73966;47.438;18.912;2023-11-19T03:22:16;100354.34;;;4.02;61.64
47873;BME280;73966;47.438;18.912;2023-11-19T03:24:45;100361.00;;;4.10;61.32
47873;BME280;73966;47.438;18.912;2023-11-19T03:27:17;100368.47;;;3.98;61.45
47873;BME280;73966;47.438;18.912;2023-11-19T03:29:47;100367.38;;;4.28;60.46
47873;BME280;73966;47.438;18.912;2023-11-19T03:32:17;100359.41;;;3.81;61.47
47873;BME280;73966;47.438;18.912;2023-11-19T03:34:47;100358.75;;;3.22;63.50
47873;BME280;73966;47.438;18.912;2023-11-19T03:37:16;100368.50;;;3.44;62.93
47873;BME280;73966;47.438;18.912;2023-11-19T03:39:47;100361.94;;;3.58;62.53
47873;BME280;73966;47.438;18.912;2023-11-19T03:42:16;100343.84;;;3.77;62.13
47873;BME280;73966;47.438;18.912;2023-11-19T03:44:45;100343.84;;;3.77;62.12
47873;BME280;73966;47.438;18.912;2023-11-19T03:47:13;100332.37;;;3.79;62.00
47873;BME280;73966;47.438;18.912;2023-11-19T03:49:47;100325.09;;;3.62;62.82
47873;BME280;73966;47.438;18.912;2023-11-19T03:52:17;100316.62;;;3.81;62.32
47873;BME280;73966;47.438;18.912;2023-11-19T03:54:49;100312.91;;;3.61;62.87
47873;BME280;73966;47.438;18.912;2023-11-19T03:57:18;100317.31;;;3.86;62.32
47873;BME280;73966;47.438;18.912;2023-11-19T03:59:47;100317.41;;;3.83;nan
47873;BME280;73966;47.438;18.912;2023-11-19T04:02:17;100313.75;;;3.88;62.18
47873;BME280;73966;47.438;18.912;2023-11-19T04:04:48;100307.91;;;3.80;62.30
47873;BME280;73966;47.438;18.912;2023-11-19T04:07:17;100301.78;;;4.05;61.73
47873;BME280;73966;47.438;18.912;2023-11-19T04:09:47;100297.25;;;3.85;62.05
47873;BME280;73966;47.438;18.912;2023-11-19T04:12:16;100290.00;;;3.91;61.72
47873;BME280;73966;47.438;18.912;2023-11-19T04:14:44;100288.63;;;4.06;61.39
47873;BME280;73966;47.438;18.912;2023-11-19T04:17:14;100286.09;;;4.03;61.37
47873;BME280;73966;47.438;18.912;2023-11-19T04:19:42;100288.78;;;4.02;61.43
47873;BME280;73966;47.438;18.912;2023-11-19T04:22:13;100296.91;;;3.94;61.58
47873;BME280;73966;47.438;18.912;2023-11-19T04:24:43;100293.56;;;3.90;61.64
47873;BME280;73966;47.438;18.912;2023-11-19T04:27:13;100286.41;;;3.44;62.88
47873;BME280;73966;47.438;18.912;2023-11-19T04:29:43;100273.34;;;3.69;61.89
47873;BME280;73966;47.438;18.912;2023-11-19T04:32:15;100275.94;;;3.94;61.06
47873;BME280;73966;47.438;18.912;2023-11-19T04:34:44;100271.78;;;3.88;61.24
47873;BME280;73966;47.438;18.912;2023-11-19T04:37:14;100279.34;;;3.73;61.72
47873;BME280;73966;47.438;18.912;2023-11-19T04:39:44;100287.34;;;3.93;61.19
47873;BME280;73966;47.438;18.912;2023-11-19T04:42:14;100285.28;;;3.78;61.50
47873;BME280;73966;47.438;18.912;2023-11-19T04:44:45;100298.47;;;3.75;61.77
47873;BME280;73966;47.438;18.912;2023-11-19T04:47:14;100297.19;;;3.08;63.76
47873;BME280;73966;47.438;18.912;2023-11-19T04:49:43;100297.09;;;3.64;62.04
47873;BME280;73966;47.438;18.912;2023-11-19T04:52:12;100307.19;;;3.50;62.66
47873;BME280;73966;47.438;18.912;2023-11-19T04:54:47;100318.44;;;3.52;62.60
47873;BME280;73966;47.438;18.912;2023-11-19T04:57:17;100312.66;;;3.16;63.70
47873;BME280;73966;47.438;18.912;2023-11-19T04:59:46;100316.38;;;3.37;63.23
47873;BME280;73966;47.438;18.912;2023-11-19T05:02:15;100312.75;;;3.66;62.44
47873;BME280;73966;47.438;18.912;2023-11-19T05:04:44;100298.47;;;3.50;62.88
47873;BME280;73966;47.438;18.912;2023-11-19T05:07:14;100288.25;;;3.42;63.03
47873;BME280;73966;47.438;18.912;2023-11-19T05:09:44;100279.31;;;3.48;63.04
47873;BME280;73966;47.438;18.912;2023-11-19T05:12:18;100298.56;;;3.47;63.17
47873;BME280;73966;47.438;18.912;2023-11-19T05:14:48;100297.63;;;3.49;62.54
47873;BME280;73966;47.438;18.912;2023-11-19T05:17:18;100305.00;;;3.63;62.12
47873;BME280;73966;47.438;18.912;2023-11-19T05:19:48;100313.62;;;3.40;63.07
47873;BME280;73966;47.438;18.912;2023-11-19T05:22:17;100305.47;;;3.49;62.89
47873;BME280;73966;47.438;18.912;2023-11-19T05:24:48;100297.78;;;3.44;63.39
47873;BME280;73966;47.438;18.912;2023-11-19T05:27:19;100288.94;;;3.47;63.26
47873;BME280;73966;47.438;18.912;2023-11-19T05:29:48;100291.25;;;3.56;62.64
47873;BME280;73966;47.438;18.912;2023-11-19T05:32:17;100300.50;;;3.66;62.22
47873;BME280;73966;47.438;18.912;2023-11-19T05:34:47;100287.84;;;3.28;63.42
47873;BME280;73966;47.438;18.912;2023-11-19T05:37:20;100287.31;;;3.44;63.00
47873;BME280;73966;47.438;18.912;2023-11-19T05:39:49;100291.41;;;3.52;63.33
47873;BME280;73966;47.438;18.912;2023-11-19T05:42:20;100291.47;;;3.50;63.37
47873;BME280;73966;47.438;18.912;2023-11-19T05:44:50;100287.41;;;3.41;63.54
47873;BME280;73966;47.438;18.912;2023-11-19T05:47:20;100297.91;;;3.40;63.41
47873;BME280;73966;47.438;18.912;2023-11-19T05:49:49;100292.47;;;3.46;63.18
47873;BME280;73966;47.438;18.912;2023-11-19T05:52:18;100284.94;;;3.62;62.78
47873;BME280;73966;47.438;18.912;2023-11-19T05:54:50;100289.81;;;3.73;62.51
47873;BME280;73966;47.438;18.912;2023-11-19T05:57:21;100298.06;;;3.62;62.93
47873;BME280;73966;47.438;18.912;2023-11-19T05:59:53;100298.31;;;3.79;62.55
47873;BME280;73966;47.438;18.912;2023-11-19T06:02:22;100293.50;;;3.67;62.61
47873;BME280;73966;47.438;18.912;2023-11-19T06:04:51;100292.72;;;3.65;62.56
47873;BME280;73966;47.438;18.912;2023-11-19T06:07:21;100300.41;;;3.44;63.15
47873;BME280;73966;47.438;18.912;2023-11-19T06:09:50;100282.25;;;3.63;62.79
47873;BME280;73966;47.438;18.912;2023-11-19T06:12:19;100288.00;;;3.75;62.57
47873;BME280;73966;47.438;18.912;2023-11-19T06:14:50;100263.66;;;3.96;62.10
47873;BME280;73966;47.438;18.912;2023-11-19T06:17:20;100270.59;;;3.72;62.64
47873;BME280;73966;47.438;18.912;2023-11-19T06:19:48;100269.19;;;3.88;62.33
47873;BME280;73966;47.438;18.912;2023-11-19T06:22:19;100274.78;;;3.78;62.75
47873;BME280;73966;47.438;18.912;2023-11-19T06:24:48;100276.28;;;3.85;62.80
47873;BME280;73966;47.438;18.912;2023-11-19T06:27:17;100263.81;;;4.15;61.99
47873;BME280;73966;47.438;18.912;2023-11-19T06:29:47;100260.00;;;4.00;62.32
47873;BME280;73966;47.438;18.912;2023-11-19T06:32:17;100242.66;;;4.19;61.81
47873;BME280;73966;47.438;18.912;2023-11-19T06:34:47;100243.47;;;4.22;61.73
47873;BME280;73966;47.438;18.912;2023-11-19T06:37:16;100241.97;;;4.14;62.00
47873;BME280;73966;47.438;18.912;2023-11-19T06:39:45;100254.88;;;4.21;62.09
47873;BME280;73966;47.438;18.912;2023-11-19T06:42:14;100252.31;;;4.64;74.55
47873;BME280;73966;47.438;18.912;2023-11-19T06:44:44;100256.12;;;5.22;75.06
47873;BME280;73966;47.438;18.912;2023-11-19T06:47:13;100252.78;;;6.00;69.87
47873;BME280;73966;47.438;18.912;2023-11-19T06:49:45;100248.03;;;6.08;61.91
47873;BME280;73966;47.438;18.912;2023-11-19T06:52:16;100242.06;;;6.04;58.90
47873;BME280;73966;47.438;18.912;2023-11-19T06:54:45;100243.38;;;5.74;58.59
47873;BME280;73966;47.438;18.912;2023-11-19T06:57:14;100243.47;;;5.72;58.20
47873;BME280;73966;47.438;18.912;2023-11-19T06:59:43;100232.19;;;5.89;57.73
47873;BME280;73966;47.438;18.912;2023-11-19T07:02:12;100229.00;;;5.62;57.89
47873;BME280;73966;47.438;18.912;2023-11-19T07:04:42;100223.47;;;5.68;58.09
47873;BME280;73966;47.438;18.912;2023-11-19T07:07:12;100240.03;;;5.70;58.02
47873;BME280;73966;47.438;18.912;2023-11-19T07:09:42;100235.97;;;5.63;58.24
47873;BME280;73966;47.438;18.912;2023-11-19T07:12:12;100237.41;;;5.70;58.27
47873;BME280;73966;47.438;18.912;2023-11-19T07:14:44;100241.28;;;5.61;58.70
47873;BME280;73966;47.438;18.912;2023-11-19T07:17:15;100239.91;;;5.53;58.89
47873;BME280;73966;47.438;18.912;2023-11-19T07:19:45;100236.84;;;5.63;58.34
47873;BME280;73966;47.438;18.912;2023-11-19T07:22:16;100237.09;;;5.57;58.31
47873;BME280;73966;47.438;18.912;2023-11-19T07:24:45;100230.37;;;5.50;58.36
47873;BME280;73966;47.438;18.912;2023-11-19T07:27:13;100234.22;;;5.43;58.48
47873;BME280;73966;47.438;18.912;2023-11-19T07:29:43;100240.00;;;5.51;58.46
47873;BME280;73966;47.438;18.912;2023-11-19T07:32:14;100239.41;;;5.45;58.67
47873;BME280;73966;47.438;18.912;2023-11-19T07:34:43;100225.12;;;5.50;58.24
47873;BME280;73966;47.438;18.912;2023-11-19T07:37:12;100227.09;;;5.45;58.19
47873;BME280;73966;47.438;18.912;2023-11-19T07:39:42;100222.50;;;5.30;58.88
47873;BME280;73966;47.438;18.912;2023-11-19T07:42:11;100247.28;;;5.24;59.40
47873;BME280;73966;47.438;18.912;2023-11-19T07:44:44;100246.44;;;5.02;60.05
47873;BME280;73966;47.438;18.912;2023-11-19T07:47:14;100241.56;;;5.55;58.83
47873;BME280;73966;47.438;18.912;2023-11-19T07:49:43;100258.31;;;5.32;59.47
47873;BME280;73966;47.438;18.912;2023-11-19T07:52:12;100254.03;;;5.50;59.23
47873;BME280;73966;47.438;18.912;2023-11-19T07:54:46;100252.31;;;5.29;59.68
47873;BME280;73966;47.438;18.912;2023-11-19T07:57:15;100254.72;;;5.55;58.82
47873;BME280;73966;47.438;18.912;2023-11-19T07:59:48;100249.91;;;5.02;60.72
47873;BME280;73966;47.438;18.912;2023-11-19T08:02:17;100250.66;;;5.06;60.99
47873;BME280;73966;47.438;18.912;2023-11-19T08:04:47;100241.63;;;5.33;60.37
47873;BME280;73966;47.438;18.912;2023-11-19T08:07:19;100237.88;;;5.59;59.70
47873;BME280;73966;47.438;18.912;2023-11-19T08:09:50;100233.00;;;5.50;59.67
47873;BME280;73966;47.438;18.912;2023-11-19T08:12:19;100228.47;;;5.13;61.38
47873;BME280;73966;47.438;18.912;2023-11-19T08:14:48;100220.28;;;5.41;60.84
47873;BME280;73966;47.438;18.912;2023-11-19T08:17:17;100203.28;;;4.87;61.99
47873;BME280;73966;47.438;18.912;2023-11-19T08:19:50;100197.47;;;4.35;63.94
47873;BME280;73966;47.438;18.912;2023-11-19T08:22:20;100190.41;;;4.59;63.60
47873;BME280;73966;47.438;18.912;2023-11-19T08:24:51;100180.78;;;4.59;63.92
47873;BME280;73966;47.438;18.912;2023-11-19T08:27:20;100174.34;;;5.09;62.49
47873;BME280;73966;47.438;18.912;2023-11-19T08:29:54;100154.59;;;5.21;61.93
47873;BME280;73966;47.438;18.912;2023-11-19T08:32:24;100153.91;;;4.75;63.71
47873;BME280;73966;47.438;18.912;2023-11-19T08:34:54;100183.25;;;4.84;63.95
47873;BME280;73966;47.438;18.912;2023-11-19T08:37:27;100201.88;;;5.21;62.98
47873;BME280;73966;47.438;18.912;2023-11-19T08:39:57;100206.69;;;5.31;62.81
47873;BME280;73966;47.438;18.912;2023-11-19T08:42:29;100189.66;;;5.60;62.25
47873;BME280;73966;47.438;18.912;2023-11-19T08:44:58;100175.69;;;5.79;61.52
47873;BME280;73966;47.438;18.912;2023-11-19T08:47:27;100173.19;;;5.76;60.92
47873;BME280;73966;47.438;18.912;2023-11-19T08:49:56;100150.31;;;5.38;61.89
47873;BME280;73966;47.438;18.912;2023-11-19T08:52:29;100145.13;;;5.37;61.35
47873;BME280;73966;47.438;18.912;2023-11-19T08:55:04;100179.47;;;5.53;61.00
47873;BME280;73966;47.438;18.912;2023-11-19T08:57:33;100169.41;;;5.62;60.59
47873;BME280;73966;47.438;18.912;2023-11-19T09:00:03;100150.38;;;5.76;60.59
47873;BME280;73966;47.438;18.912;2023-11-19T09:02:35;100175.09;;;5.72;61.02
47873;BME280;73966;47.438;18.912;2023-11-19T09:05:06;100175.94;;;5.93;60.97
47873;BME280;73966;47.438;18.912;2023-11-19T09:07:36;100164.94;;;6.04;61.01
47873;BME280;73966;47.438;18.912;2023-11-19T09:10:08;100165.91;;;6.39;60.29
47873;BME280;73966;47.438;18.912;2023-11-19T09:12:38;100184.31;;;6.58;59.96
47873;BME280;73966;47.438;18.912;2023-11-19T09:15:08;100172.03;;;6.57;60.20
47873;BME280;73966;47.438;18.912;2023-11-19T09:17:38;100184.41;;;6.74;59.31
47873;BME280;73966;47.438;18.912;2023-11-19T09:20:09;100184.66;;;6.50;59.32
47873;BME280;73966;47.438;18.912;2023-11-19T09:22:40;100177.13;;;6.43;59.83
47873;BME280;73966;47.438;18.912;2023-11-19T09:25:11;100176.28;;;6.78;59.22
47873;BME280;73966;47.438;18.912;2023-11-19T09:27:44;100174.12;;;6.86;58.80
47873;BME280;73966;47.438;18.912;2023-11-19T09:30:14;100175.22;;;6.46;59.61
47873;BME280;73966;47.438;18.912;2023-11-19T09:32:43;100177.47;;;6.54;59.53
47873;BME280;73966;47.438;18.912;2023-11-19T09:35:13;100169.28;;;6.60;59.36
47873;BME280;73966;47.438;18.912;2023-11-19T09:37:44;100174.78;;;6.18;59.84
47873;BME280;73966;47.438;18.912;2023-11-19T09:40:14;100158.22;;;6.53;59.09
47873;BME280;73966;47.438;18.912;2023-11-19T09:42:45;100151.63;;;6.62;59.14
47873;BME280;73966;47.438;18.912;2023-11-19T09:45:21;100133.38;;;6.40;59.65
47873;BME280;73966;47.438;18.912;2023-11-19T09:47:51;100135.25;;;6.38;59.43
47873;BME280;73966;47.438;18.912;2023-11-19T09:50:22;100133.34;;;6.76;58.61
47873;BME280;73966;47.438;18.912;2023-11-19T09:52:51;100141.72;;;6.67;58.45
47873;BME280;73966;47.438;18.912;2023-11-19T09:55:21;100144.34;;;6.50;58.97
47873;BME280;73966;47.438;18.912;2023-11-19T09:57:52;100136.31;;;6.70;58.86
47873;BME280;73966;47.438;18.912;2023-11-19T10:00:24;100123.84;;;6.91;58.47
47873;BME280;73966;47.438;18.912;2023-11-19T10:02:56;100112.06;;;6.81;58.79
47873;BME280;73966;47.438;18.912;2023-11-19T10:05:26;100119.00;;;6.47;59.40
47873;BME280;73966;47.438;18.912;2023-11-19T10:07:55;100124.31;;;6.82;58.90
47873;BME280;73966;47.438;18.912;2023-11-19T10:10:25;100113.06;;;6.78;58.83
47873;BME280;73966;47.438;18.912;2023-11-19T10:12:59;100104.00;;;7.01;58.33
47873;BME280;73966;47.438;18.912;2023-11-19T10:15:28;100102.69;;;6.93;58.53
47873;BME280;73966;47.438;18.912;2023-11-19T10:18:02;100097.25;;;7.13;58.11
47873;BME280;73966;47.438;18.912;2023-11-19T10:20:35;100088.72;;;7.25;57.82
47873;BME280;73966;47.438;18.912;2023-11-19T10:23:05;100085.81;;;6.79;57.06
47873;BME280;73966;47.438;18.912;2023-11-19T10:25:35;100085.38;;;6.35;57.85
47873;BME280;73966;47.438;18.912;2023-11-19T10:28:06;100078.69;;;6.10;58.67
47873;BME280;73966;47.438;18.912;2023-11-19T10:30:41;100070.72;;;5.93;58.89
47873;BME280;73966;47.438;18.912;2023-11-19T10:33:11;100071.91;;;5.86;58.83
47873;BME280;73966;47.438;18.912;2023-11-19T10:35:51;100076.00;;;5.93;58.99
47873;BME280;73966;47.438;18.912;2023-11-19T10:38:28;100077.37;;;5.81;58.97
47873;BME280;73966;47.438;18.912;2023-11-19T10:41:00;100070.53;;;6.51;57.53
47873;BME280;73966;47.438;18.912;2023-11-19T10:43:42;100070.78;;;6.64;57.66
47873;BME280;73966;47.438;18.912;2023-11-19T10:46:13;100076.06;;;6.81;57.44
47873;BME280;73966;47.438;18.912;2023-11-19T10:48:52;100066.16;;;7.20;55.94
47873;BME280;73966;47.438;18.912;2023-11-19T10:51:21;100070.47;;;6.87;56.86
47873;BME280;73966;47.438;18.912;2023-11-19T10:53:53;100060.16;;;6.83;56.20
47873;BME280;73966;47.438;18.912;2023-11-19T10:56:30;100065.53;;;6.81;56.87
47873;BME280;73966;47.438;18.912;2023-11-19T10:59:00;100055.31;;;7.08;57.95
47873;BME280;73966;47.438;18.912;2023-11-19T11:01:34;100048.38;;;6.73;59.34
47873;BME280;73966;47.438;18.912;2023-11-19T11:04:13;100052.56;;;6.59;59.75
47873;BME280;73966;47.438;18.912;2023-11-19T11:06:44;100045.44;;;6.27;60.70
47873;BME280;73966;47.438;18.912;2023-11-19T11:09:14;100043.81;;;6.24;61.25
47873;BME280;73966;47.438;18.912;2023-11-19T11:11:47;100041.53;;;6.16;61.58
47873;BME280;73966;47.438;18.912;2023-11-19T11:14:16;100027.25;;;6.39;60.97
47873;BME280;73966;47.438;18.912;2023-11-19T11:16:48;100014.16;;;6.21;61.94
47873;BME280;73966;47.438;18.912;2023-11-19T11:19:17;99998.63;;;6.51;61.25
47873;BME280;73966;47.438;18.912;2023-11-19T11:21:52;99998.78;;;6.48;61.01
47873;BME280;73966;47.438;18.912;2023-11-19T11:30:35;100008.88;;;5.84;64.09
47873;BME280;73966;47.438;18.912;2023-11-19T11:33:30;100006.16;;;5.86;65.43
47873;BME280;73966;47.438;18.912;2023-11-19T11:36:11;100011.84;;;6.32;64.41
47873;BME280;73966;47.438;18.912;2023-11-19T11:38:42;100011.31;;;6.60;62.64
47873;BME280;73966;47.438;18.912;2023-11-19T11:41:15;100028.56;;;6.31;63.24
47873;BME280;73966;47.438;18.912;2023-11-19T11:43:50;100004.03;;;6.48;62.95
47873;BME280;73966;47.438;18.912;2023-11-19T11:46:54;99989.84;;;6.33;63.30
47873;BME280;73966;47.438;18.912;2023-11-19T11:49:28;99990.06;;;5.94;64.56
47873;BME280;73966;47.438;18.912;2023-11-19T11:52:02;99983.81;;;6.13;63.58
47873;BME280;73966;47.438;18.912;2023-11-19T11:54:34;99975.28;;;5.72;65.51
47873;BME280;73966;47.438;18.912;2023-11-19T11:57:10;99988.88;;;5.44;66.21
47873;BME280;73966;47.438;18.912;2023-11-19T11:59:47;99978.63;;;5.76;65.57
47873;BME280;73966;47.438;18.912;2023-11-19T12:02:17;99970.78;;;5.93;64.54
47873;BME280;73966;47.438;18.912;2023-11-19T12:04:50;99968.34;;;5.88;65.52
47873;BME280;73966;47.438;18.912;2023-11-19T12:07:22;99969.03;;;6.63;62.79
47873;BME280;73966;47.438;18.912;2023-11-19T12:10:06;99960.84;;;6.17;64.39
47873;BME280;73966;47.438;18.912;2023-11-19T12:12:36;99954.50;;;5.85;65.13
47873;BME280;73966;47.438;18.912;2023-11-19T12:15:11;99955.34;;;6.04;64.40
47873;BME280;73966;47.438;18.912;2023-11-19T12:17:46;99947.13;;;6.62;63.13
47873;BME280;73966;47.438;18.912;2023-11-19T12:20:19;99930.19;;;6.16;64.27
47873;BME280;73966;47.438;18.912;2023-11-19T12:22:54;99933.06;;;6.11;64.53
47873;BME280;73966;47.438;18.912;2023-11-19T12:25:24;99928.88;;;6.25;64.28
47873;BME280;73966;47.438;18.912;2023-11-19T12:27:53;99924.28;;;6.63;63.33
47873;BME280;73966;47.438;18.912;2023-11-19T12:30:25;99925.84;;;6.50;63.12
47873;BME280;73966;47.438;18.912;2023-11-19T12:32:57;99915.97;;;6.20;64.04
47873;BME280;73966;47.438;18.912;2023-11-19T12:35:27;99908.47;;;6.63;63.46
47873;BME280;73966;47.438;18.912;2023-11-19T12:37:56;99900.06;;;7.05;61.49
47873;BME280;73966;47.438;18.912;2023-11-19T12:40:25;99899.97;;;6.58;62.83
47873;BME280;73966;47.438;18.912;2023-11-19T12:43:01;99892.53;;;6.15;64.35
47873;BME280;73966;47.438;18.912;2023-11-19T12:45:36;99884.28;;;6.39;64.23
47873;BME280;73966;47.438;18.912;2023-11-19T12:48:06;99889.19;;;6.62;63.00
47873;BME280;73966;47.438;18.912;2023-11-19T12:50:51;99884.66;;;6.49;62.95
47873;BME280;73966;47.438;18.912;2023-11-19T12:53:22;99863.81;;;6.61;62.81
47873;BME280;73966;47.438;18.912;2023-11-19T12:55:53;99862.19;;;6.59;62.89
47873;BME280;73966;47.438;18.912;2023-11-19T12:58:29;99859.47;;;6.60;62.37
47873;BME280;73966;47.438;18.912;2023-11-19T13:01:03;99857.72;;;6.44;62.08
47873;BME280;73966;47.438;18.912;2023-11-19T13:03:39;99871.28;;;6.53;62.13
47873;BME280;73966;47.438;18.912;2023-11-19T13:06:10;99871.47;;;6.82;61.20
47873;BME280;73966;47.438;18.912;2023-11-19T13:08:40;99877.19;;;6.90;60.83
47873;BME280;73966;47.438;18.912;2023-11-19T13:11:13;99876.69;;;7.15;59.87
47873;BME280;73966;47.438;18.912;2023-11-19T13:13:55;99882.09;;;7.28;59.51
47873;BME280;73966;47.438;18.912;2023-11-19T13:16:26;99871.81;;;7.07;60.39